首页
METAR-TAF:

METAR-TAF

机场 :

Slidell Airport

斯莱德尔, 路易斯安那州, 美国

纬度: 30-20-35N, 经度: 089-49-19W, 海拔: 9米

当前天气观测

该预报发布于18分钟前的16:04 UTC
风速12节,风向
温度 16°C
湿度 72%
气压 1025 hPa
能見度: 16.1公里
散云层高于1200英尺

METAR: KASD 231604Z AUTO 01012KT 10SM SCT012 16/11 A3028 RMK AO2 T01560106

时间: 10:22 (16:22 UTC)

预报

该预报发布于2小时和4分钟前的14:18 UTC
预报有效从23日的 14点(UTC)到 24日的 12点(UTC)
风速13节,风向北转东北,有时为18节阵风
能見度: 10公里
阴天层高于1000英尺
从 23日的 1800点(UTC)
风速7节,风向北转东北
能見度: 10公里
少量云层高于25000英尺

TAF: KASD 231418Z 2314/2412 02013G18KT P6SM OVC010 FM231800 02007KT P6SM FEW250

超过4000个机场的气象观测和天气预报(METAR&TAF报告)。

可查询的气象台以黄色和红色小点在地图上表示。

将鼠标移到小点上方,可查看气象台名称。

然后点击查看天气观测和预报。

如需切换地图:点击带黑十字的绿色按钮放大地图;点击带横线的绿色按钮缩小地图;或者点击绿色箭头查看邻近地区的地图。


METAR-TAF: